Hertfordshire — ZDJS5 — position and weather

sailwx.info

Track history (hours):
 
Tides and Currents Weather Stations Pressure Air Temp Water Temp Dewpoint Dewpoint Depression Visibility Wind Speed Wind Dir Waves Ship Positions

Hertfordshire

Last reported at 2015-Jul-04 04:33 UTC. Time now 2015-Jul-04 05:07 UTC.
Position N 53°37' W 003°55'.

Length 83 m; draft 4.8 m.

Type: Cargo ship. MMSI: 236563000.

Date/timePositionNaut miles runAvg speedWind from/ knotsBaromVisibWave heightAir tempDewpointWater temp
2015-Jul-04 04:33N 53°37' W 003°55'47 7.7
2015-Jul-03 22:26N 54°10' W 004°53'18 9.5
2015-Jul-03 20:33N 54°27' W 004°58'10 9.9
2015-Jul-03 19:33N 54°37' W 005°01'1110.8
2015-Jul-03 18:33N 54°45' W 005°13'10 9.8
2015-Jul-03 17:34N 54°53' W 005°24'9 8.5
2015-Jul-03 16:30N 54°60' W 005°34'7 7.2
2015-Jul-03 15:33N 55°05' W 005°42'7 6.5
2015-Jul-03 14:33N 55°09' W 005°50'6 6.2
2015-Jul-03 13:30N 55°14' W 005°57'7 7.5
2015-Jul-03 12:33N 55°20' W 006°06'9 8.8
2015-Jul-03 11:33N 55°25' W 006°18'9 9.5
2015-Jul-03 10:33N 55°32' W 006°29'1211.7
2015-Jul-03 09:33N 55°41' W 006°41'1211.8
2015-Jul-03 08:33N 55°52' W 006°51'198 8.6
2015-Jul-02 09:33N 58°53' W 004°23'9 8.7
2015-Jul-02 08:33N 58°58' W 004°10'9 8.8
2015-Jul-02 07:33N 59°03' W 003°56'9 9.0
2015-Jul-02 06:33N 59°09' W 003°41'9 8.9
2015-Jul-02 05:33N 59°14' W 003°27'  
2015-Jun-27 21:33N 59°01' W 002°32'9 9.4
2015-Jun-27 20:33N 59°01' W 002°51'4 4.1
2015-Jun-27 19:32N 59°00' W 002°59'0 0.0
2015-Jun-27 18:32N 59°00' W 002°59'0 0.0
2015-Jun-27 17:32N 59°00' W 002°59'0 0.0
2015-Jun-27 16:32N 59°00' W 002°59'0 0.0
2015-Jun-27 15:32N 59°00' W 002°59'0 0.0
2015-Jun-27 14:32N 59°00' W 002°59'0 0.0
2015-Jun-27 13:32N 59°00' W 002°59'0 0.0
2015-Jun-27 12:32N 59°00' W 002°59'0 0.0
2015-Jun-27 11:32N 59°00' W 002°59'0 0.0
2015-Jun-27 10:32N 59°00' W 002°59'0 0.0
2015-Jun-27 09:32N 59°00' W 002°59'0 0.0
2015-Jun-27 08:32N 59°00' W 002°59'0 0.0
2015-Jun-27 07:32N 59°00' W 002°59'0 0.0
2015-Jun-27 06:32N 59°00' W 002°59'0 0.0
2015-Jun-27 05:32N 59°00' W 002°59'0 0.0
2015-Jun-27 04:32N 59°00' W 002°59'0 0.0
2015-Jun-27 03:32N 59°00' W 002°59'0 0.0
2015-Jun-27 02:32N 59°00' W 002°59'0 0.0
2015-Jun-27 01:32N 59°00' W 002°59'0 0.0
2015-Jun-27 00:32N 59°00' W 002°59'0 0.0
2015-Jun-26 23:32N 59°00' W 002°59'0 0.0
2015-Jun-26 22:32N 59°00' W 002°59'0 0.0
2015-Jun-26 21:29N 59°00' W 002°59'0 0.0
2015-Jun-26 20:32N 59°00' W 002°59'0 0.0
2015-Jun-26 19:32N 59°00' W 002°59'0 0.0
2015-Jun-26 18:32N 59°00' W 002°59'0 0.0
2015-Jun-26 17:29N 59°00' W 002°59'0 0.0
2015-Jun-26 16:32N 59°00' W 002°59'0 0.0
2015-Jun-26 15:32N 59°00' W 002°59'0 0.0
2015-Jun-26 14:32N 59°00' W 002°59'0 0.0
2015-Jun-26 13:32N 59°00' W 002°59'0 0.0
2015-Jun-26 12:32N 59°00' W 002°59'0 0.0
2015-Jun-26 11:32N 59°00' W 002°59'0 0.0
2015-Jun-26 10:32N 59°00' W 002°59'0 0.0
2015-Jun-26 09:32N 59°00' W 002°59'0 0.0
2015-Jun-26 08:32N 59°00' W 002°59'0 0.0
2015-Jun-26 07:32N 59°00' W 002°59'0 0.0
2015-Jun-26 06:32N 59°00' W 002°59'0 0.0
2015-Jun-26 05:32N 59°00' W 002°59'0 0.0
2015-Jun-26 04:32N 59°00' W 002°59'0 0.0
2015-Jun-26 03:32N 59°00' W 002°59'0 0.0
2015-Jun-26 02:32N 59°00' W 002°59'0 0.0
2015-Jun-26 01:32N 59°00' W 002°59'7 7.2
2015-Jun-26 00:33N 58°60' W 002°45'7410.5
2015-Jun-25 17:33N 57°51' W 001°54'1010.2
2015-Jun-25 16:33N 57°41' W 001°47'10 9.9
2015-Jun-25 15:33N 57°32' W 001°43'3 1.2
2015-Jun-25 13:31N 57°30' W 001°47'0 0.0
2015-Jun-25 09:16N 57°30' W 001°47'0 0.0
2015-Jun-25 04:32N 57°30' W 001°47'5 5.5
2015-Jun-25 03:33N 57°29' W 001°37'  
Track history (hours):
 
Tides and Currents Weather Stations Pressure Air Temp Water Temp Dewpoint Dewpoint Depression Visibility Wind Speed Wind Dir Waves Ship Positions

Hertfordshire

Last reported at 2015-Jul-04 04:33 UTC. Time now 2015-Jul-04 05:07 UTC.
Position N 53°37' W 003°55'.

Length 83 m; draft 4.8 m.

Type: Cargo ship. MMSI: 236563000.

Date/timePositionNaut miles runAvg speedWind from/ knotsBaromVisibWave heightAir tempDewpointWater temp
2015-Jul-04 04:33N 53°37' W 003°55'47 7.7
2015-Jul-03 22:26N 54°10' W 004°53'18 9.5
2015-Jul-03 20:33N 54°27' W 004°58'10 9.9
2015-Jul-03 19:33N 54°37' W 005°01'1110.8
2015-Jul-03 18:33N 54°45' W 005°13'10 9.8
2015-Jul-03 17:34N 54°53' W 005°24'9 8.5
2015-Jul-03 16:30N 54°60' W 005°34'7 7.2
2015-Jul-03 15:33N 55°05' W 005°42'7 6.5
2015-Jul-03 14:33N 55°09' W 005°50'6 6.2
2015-Jul-03 13:30N 55°14' W 005°57'7 7.5
2015-Jul-03 12:33N 55°20' W 006°06'9 8.8
2015-Jul-03 11:33N 55°25' W 006°18'9 9.5
2015-Jul-03 10:33N 55°32' W 006°29'1211.7
2015-Jul-03 09:33N 55°41' W 006°41'1211.8
2015-Jul-03 08:33N 55°52' W 006°51'198 8.6
2015-Jul-02 09:33N 58°53' W 004°23'9 8.7
2015-Jul-02 08:33N 58°58' W 004°10'9 8.8
2015-Jul-02 07:33N 59°03' W 003°56'9 9.0
2015-Jul-02 06:33N 59°09' W 003°41'9 8.9
2015-Jul-02 05:33N 59°14' W 003°27'  
2015-Jun-27 21:33N 59°01' W 002°32'9 9.4
2015-Jun-27 20:33N 59°01' W 002°51'4 4.1
2015-Jun-27 19:32N 59°00' W 002°59'0 0.0
2015-Jun-27 18:32N 59°00' W 002°59'0 0.0
2015-Jun-27 17:32N 59°00' W 002°59'0 0.0
2015-Jun-27 16:32N 59°00' W 002°59'0 0.0
2015-Jun-27 15:32N 59°00' W 002°59'0 0.0
2015-Jun-27 14:32N 59°00' W 002°59'0 0.0
2015-Jun-27 13:32N 59°00' W 002°59'0 0.0
2015-Jun-27 12:32N 59°00' W 002°59'0 0.0
2015-Jun-27 11:32N 59°00' W 002°59'0 0.0
2015-Jun-27 10:32N 59°00' W 002°59'0 0.0
2015-Jun-27 09:32N 59°00' W 002°59'0 0.0
2015-Jun-27 08:32N 59°00' W 002°59'0 0.0
2015-Jun-27 07:32N 59°00' W 002°59'0 0.0
2015-Jun-27 06:32N 59°00' W 002°59'0 0.0
2015-Jun-27 05:32N 59°00' W 002°59'0 0.0
2015-Jun-27 04:32N 59°00' W 002°59'0 0.0
2015-Jun-27 03:32N 59°00' W 002°59'0 0.0
2015-Jun-27 02:32N 59°00' W 002°59'0 0.0
2015-Jun-27 01:32N 59°00' W 002°59'0 0.0
2015-Jun-27 00:32N 59°00' W 002°59'0 0.0
2015-Jun-26 23:32N 59°00' W 002°59'0 0.0
2015-Jun-26 22:32N 59°00' W 002°59'0 0.0
2015-Jun-26 21:29N 59°00' W 002°59'0 0.0
2015-Jun-26 20:32N 59°00' W 002°59'0 0.0
2015-Jun-26 19:32N 59°00' W 002°59'0 0.0
2015-Jun-26 18:32N 59°00' W 002°59'0 0.0
2015-Jun-26 17:29N 59°00' W 002°59'0 0.0
2015-Jun-26 16:32N 59°00' W 002°59'0 0.0
2015-Jun-26 15:32N 59°00' W 002°59'0 0.0
2015-Jun-26 14:32N 59°00' W 002°59'0 0.0
2015-Jun-26 13:32N 59°00' W 002°59'0 0.0
2015-Jun-26 12:32N 59°00' W 002°59'0 0.0
2015-Jun-26 11:32N 59°00' W 002°59'0 0.0
2015-Jun-26 10:32N 59°00' W 002°59'0 0.0
2015-Jun-26 09:32N 59°00' W 002°59'0 0.0
2015-Jun-26 08:32N 59°00' W 002°59'0 0.0
2015-Jun-26 07:32N 59°00' W 002°59'0 0.0
2015-Jun-26 06:32N 59°00' W 002°59'0 0.0
2015-Jun-26 05:32N 59°00' W 002°59'0 0.0
2015-Jun-26 04:32N 59°00' W 002°59'0 0.0
2015-Jun-26 03:32N 59°00' W 002°59'0 0.0
2015-Jun-26 02:32N 59°00' W 002°59'0 0.0
2015-Jun-26 01:32N 59°00' W 002°59'7 7.2
2015-Jun-26 00:33N 58°60' W 002°45'7410.5
2015-Jun-25 17:33N 57°51' W 001°54'1010.2
2015-Jun-25 16:33N 57°41' W 001°47'10 9.9
2015-Jun-25 15:33N 57°32' W 001°43'3 1.2
2015-Jun-25 13:31N 57°30' W 001°47'0 0.0
2015-Jun-25 09:16N 57°30' W 001°47'0 0.0
2015-Jun-25 04:32N 57°30' W 001°47'5 5.5
2015-Jun-25 03:33N 57°29' W 001°37'  

Dump ship's entire track history